»·PEaware :: N2141Y KSBA-KBUR

N2141Y :: KSBA-KBUR

FLIGHT INFORMATION

Flight Status: Arrived
Operator: Privately registered:
United States
More flights under this callsign
Pilot: Pierce O. (19576)
Aircraft: CESSNA 172 SKYHAWK
(C172)
More flights by this aircraft type
Origin: KSBA Santa Barbara Mun
United States
Destination: KBUR Bob Hope-Burbank
United States
More flights between these airports :: More routes between these airports
Route: +
File this flight plan on PilotEdge
Remarks:
Altitude:
(Current/Filed)
7,500ft
Speed:
(Current/Filed)
0kts
Departed: 09-Feb-19 11:02 AM
Arrived: 09-Feb-19 11:52 AM
Distance/Time
Traveled:
74nm/0:50
Distance/Time
To Go:
Arrived

Flight Plot

Page will automatically refresh every two minutes.


Map Options




Map Legend


Flown Route
Filed Route
Departure Airport
Arrival Airport
Navaid (VOR, NDB)
Fix

Horizontal Profiles

Position Reports

Time Latitude Longitude Heading Altitude Ground
Speed
09-Feb-19 10:47 34.422676 -119.835681 267 10ft 0kts
09-Feb-19 10:48 34.422676 -119.835681 267 10ft 0kts
09-Feb-19 10:49 34.422676 -119.835681 267 10ft 0kts
09-Feb-19 10:50 34.422676 -119.835681 267 10ft 0kts
09-Feb-19 10:51 34.422676 -119.835681 267 10ft 0kts
09-Feb-19 10:52 34.422714 -119.836972 257 12ft 1kts
09-Feb-19 10:53 34.425419 -119.837958 345 12ft 17kts
09-Feb-19 10:54 34.426742 -119.836199 93 10ft 15kts
09-Feb-19 10:55 34.426980 -119.834620 2 10ft 2kts
09-Feb-19 10:56 34.427027 -119.834621 357 10ft 0kts
09-Feb-19 10:57 34.427027 -119.834621 357 10ft 0kts
09-Feb-19 10:58 34.427027 -119.834621 357 10ft 0kts
09-Feb-19 10:59 34.427027 -119.834621 357 10ft 0kts
09-Feb-19 11:00 34.427220 -119.834631 358 10ft 9kts
09-Feb-19 11:01 34.427158 -119.848449 250 334ft 75kts
09-Feb-19 11:02 34.424753 -119.874639 261 1231ft 81kts
09-Feb-19 11:03 34.424435 -119.907569 272 1598ft 105kts
09-Feb-19 11:04 34.430287 -119.943909 280 1536ft 110kts
09-Feb-19 11:05 34.434110 -119.979721 272 1756ft 111kts
09-Feb-19 11:06 34.413904 -119.987032 111 1949ft 121kts
09-Feb-19 11:07 34.406739 -119.946871 103 2244ft 118kts
09-Feb-19 11:08 34.401300 -119.907915 97 2642ft 116kts
09-Feb-19 11:09 34.399239 -119.868840 95 3040ft 116kts
09-Feb-19 11:10 34.397249 -119.829942 95 3439ft 115kts
09-Feb-19 11:11 34.395258 -119.791348 95 3837ft 114kts
09-Feb-19 11:12 34.393262 -119.753131 95 4234ft 113kts
09-Feb-19 11:13 34.391262 -119.715086 95 4631ft 113kts
09-Feb-19 11:14 34.389261 -119.677240 95 5029ft 112kts
09-Feb-19 11:15 34.388552 -119.639559 89 5427ft 111kts
09-Feb-19 11:16 34.388354 -119.602373 101 5823ft 110kts
09-Feb-19 11:17 34.382575 -119.566093 102 6221ft 109kts
09-Feb-19 11:18 34.377338 -119.530477 101 6683ft 102kts
09-Feb-19 11:19 34.372717 -119.498026 101 7271ft 93kts
09-Feb-19 11:20 34.367913 -119.464638 101 7506ft 115kts
09-Feb-19 11:21 34.361788 -119.423959 101 7503ft 126kts
09-Feb-19 11:22 34.355496 -119.382510 101 7503ft 123kts
09-Feb-19 11:23 34.349221 -119.341240 102 7503ft 124kts
09-Feb-19 11:24 34.342927 -119.299982 102 7503ft 123kts
09-Feb-19 11:26 34.336537 -119.258289 102 7503ft 126kts
09-Feb-19 11:27 34.330061 -119.216249 102 7503ft 127kts
09-Feb-19 11:28 34.323570 -119.174259 102 7503ft 127kts
09-Feb-19 11:29 34.317165 -119.132865 102 7500ft 116kts
09-Feb-19 11:30 34.311772 -119.097233 102 7502ft 103kts
09-Feb-19 11:31 34.306739 -119.063631 102 7503ft 100kts
09-Feb-19 11:32 34.301793 -119.030609 102 7503ft 99kts
09-Feb-19 11:33 34.296853 -118.997723 102 7503ft 99kts
09-Feb-19 11:34 34.291901 -118.964843 102 7503ft 99kts
09-Feb-19 11:35 34.286939 -118.932009 102 7503ft 99kts
09-Feb-19 11:36 34.281976 -118.899241 102 7503ft 99kts
09-Feb-19 11:37 34.276628 -118.864408 102 7505ft 113kts
09-Feb-19 11:38 34.270662 -118.826097 101 7503ft 117kts
09-Feb-19 11:39 34.265142 -118.787148 99 7503ft 118kts
09-Feb-19 11:40 34.260669 -118.747825 99 7502ft 115kts
09-Feb-19 11:41 34.256373 -118.709668 99 7453ft 114kts
09-Feb-19 11:42 34.251810 -118.670003 100 7167ft 126kts
09-Feb-19 11:43 34.245689 -118.627942 101 6663ft 126kts
09-Feb-19 11:44 34.239581 -118.586257 101 6161ft 125kts
09-Feb-19 11:45 34.233602 -118.545384 101 5672ft 123kts
09-Feb-19 11:45 34.228475 -118.511571 103 5083ft 122kts
09-Feb-19 11:46 34.221659 -118.472862 103 4368ft 105kts
09-Feb-19 11:48 34.212201 -118.438555 128 3261ft 90kts
09-Feb-19 11:49 34.195737 -118.417064 100 2314ft 87kts
09-Feb-19 11:49 34.198739 -118.395959 94 1571ft 67kts
09-Feb-19 11:50 34.197963 -118.373829 89 879ft 62kts
09-Feb-19 11:51 34.197754 -118.361064 89 717ft 17kts
09-Feb-19 11:52 34.197042 -118.360292 183 714ft 0kts
09-Feb-19 11:53 34.196947 -118.360370 229 714ft 0kts
09-Feb-19 11:54 34.196940 -118.364348 260 718ft 13kts
09-Feb-19 11:55 34.196517 -118.366826 200 722ft 6kts
09-Feb-19 11:56 34.196384 -118.367503 0 722ft 0kts
09-Feb-19 11:57 34.196385 -118.367503 359 722ft 0kts

Navigation Log

Ident Type
Flight plan parsing failed, navigation log unavailable